sensor_id;sensor_type;location;lat;lon;timestamp;P1;durP1;ratioP1;P2;durP2;ratioP2
29812;SDS011;16707;48.106;11.548;2023-04-09T00:01:24;14.00;;;8.63;;
29812;SDS011;16707;48.106;11.548;2023-04-09T00:03:52;12.27;;;8.80;;
29812;SDS011;16707;48.106;11.548;2023-04-09T00:06:19;12.88;;;8.70;;
29812;SDS011;16707;48.106;11.548;2023-04-09T00:08:46;14.00;;;9.27;;
29812;SDS011;16707;48.106;11.548;2023-04-09T00:11:13;11.57;;;8.57;;
29812;SDS011;16707;48.106;11.548;2023-04-09T00:13:40;13.32;;;8.40;;
29812;SDS011;16707;48.106;11.548;2023-04-09T00:16:07;15.68;;;9.27;;
29812;SDS011;16707;48.106;11.548;2023-04-09T00:18:34;13.93;;;9.30;;
29812;SDS011;16707;48.106;11.548;2023-04-09T00:21:02;13.95;;;9.45;;
29812;SDS011;16707;48.106;11.548;2023-04-09T00:23:31;13.23;;;8.52;;
29812;SDS011;16707;48.106;11.548;2023-04-09T00:25:57;15.40;;;8.88;;
29812;SDS011;16707;48.106;11.548;2023-04-09T00:28:25;12.27;;;8.90;;
29812;SDS011;16707;48.106;11.548;2023-04-09T00:30:52;12.93;;;8.85;;
29812;SDS011;16707;48.106;11.548;2023-04-09T00:33:19;15.82;;;9.57;;
29812;SDS011;16707;48.106;11.548;2023-04-09T00:35:46;11.73;;;8.95;;
29812;SDS011;16707;48.106;11.548;2023-04-09T00:38:14;15.18;;;8.60;;
29812;SDS011;16707;48.106;11.548;2023-04-09T00:40:41;14.10;;;8.82;;
29812;SDS011;16707;48.106;11.548;2023-04-09T00:43:09;13.88;;;9.55;;
29812;SDS011;16707;48.106;11.548;2023-04-09T00:45:36;13.68;;;8.15;;
29812;SDS011;16707;48.106;11.548;2023-04-09T00:48:04;13.10;;;7.82;;
29812;SDS011;16707;48.106;11.548;2023-04-09T00:50:31;13.90;;;8.88;;
29812;SDS011;16707;48.106;11.548;2023-04-09T00:52:57;12.77;;;7.75;;
29812;SDS011;16707;48.106;11.548;2023-04-09T00:55:26;12.30;;;8.48;;
29812;SDS011;16707;48.106;11.548;2023-04-09T00:57:54;12.43;;;8.85;;
29812;SDS011;16707;48.106;11.548;2023-04-09T01:00:21;12.88;;;8.65;;
29812;SDS011;16707;48.106;11.548;2023-04-09T01:02:48;12.57;;;8.32;;
29812;SDS011;16707;48.106;11.548;2023-04-09T01:05:16;13.80;;;8.77;;
29812;SDS011;16707;48.106;11.548;2023-04-09T01:07:48;13.05;;;8.45;;
29812;SDS011;16707;48.106;11.548;2023-04-09T01:10:23;10.52;;;7.38;;
29812;SDS011;16707;48.106;11.548;2023-04-09T01:13:00;12.88;;;7.43;;
29812;SDS011;16707;48.106;11.548;2023-04-09T01:15:35;11.40;;;7.82;;
29812;SDS011;16707;48.106;11.548;2023-04-09T01:18:06;10.93;;;7.47;;
29812;SDS011;16707;48.106;11.548;2023-04-09T01:20:38;13.88;;;7.60;;
29812;SDS011;16707;48.106;11.548;2023-04-09T01:23:13;11.52;;;7.95;;
29812;SDS011;16707;48.106;11.548;2023-04-09T01:25:48;11.75;;;7.53;;
29812;SDS011;16707;48.106;11.548;2023-04-09T01:28:29;12.63;;;7.35;;
29812;SDS011;16707;48.106;11.548;2023-04-09T01:33:29;11.85;;;8.30;;
29812;SDS011;16707;48.106;11.548;2023-04-09T01:35:57;11.25;;;6.75;;
29812;SDS011;16707;48.106;11.548;2023-04-09T01:38:25;13.55;;;7.88;;
29812;SDS011;16707;48.106;11.548;2023-04-09T01:40:53;14.25;;;8.15;;
29812;SDS011;16707;48.106;11.548;2023-04-09T01:43:21;11.20;;;7.65;;
29812;SDS011;16707;48.106;11.548;2023-04-09T01:45:51;12.20;;;7.65;;
29812;SDS011;16707;48.106;11.548;2023-04-09T01:48:19;11.20;;;7.38;;
29812;SDS011;16707;48.106;11.548;2023-04-09T01:50:47;12.77;;;7.60;;
29812;SDS011;16707;48.106;11.548;2023-04-09T01:53:15;11.48;;;7.60;;
29812;SDS011;16707;48.106;11.548;2023-04-09T01:55:42;12.32;;;8.20;;
29812;SDS011;16707;48.106;11.548;2023-04-09T01:58:10;14.52;;;7.70;;
29812;SDS011;16707;48.106;11.548;2023-04-09T02:00:38;14.07;;;8.15;;
29812;SDS011;16707;48.106;11.548;2023-04-09T02:03:09;12.02;;;8.23;;
29812;SDS011;16707;48.106;11.548;2023-04-09T02:05:42;13.13;;;8.27;;
29812;SDS011;16707;48.106;11.548;2023-04-09T02:08:12;11.43;;;7.63;;
29812;SDS011;16707;48.106;11.548;2023-04-09T02:10:43;13.70;;;8.50;;
29812;SDS011;16707;48.106;11.548;2023-04-09T02:13:18;12.80;;;7.95;;
29812;SDS011;16707;48.106;11.548;2023-04-09T02:15:46;12.38;;;8.18;;
29812;SDS011;16707;48.106;11.548;2023-04-09T02:18:21;12.23;;;8.25;;
29812;SDS011;16707;48.106;11.548;2023-04-09T02:20:50;12.77;;;7.72;;
29812;SDS011;16707;48.106;11.548;2023-04-09T02:23:18;11.07;;;7.50;;
29812;SDS011;16707;48.106;11.548;2023-04-09T02:25:45;13.00;;;8.30;;
29812;SDS011;16707;48.106;11.548;2023-04-09T02:28:15;10.07;;;7.28;;
29812;SDS011;16707;48.106;11.548;2023-04-09T02:30:42;11.38;;;6.70;;
29812;SDS011;16707;48.106;11.548;2023-04-09T02:33:09;10.40;;;7.20;;
29812;SDS011;16707;48.106;11.548;2023-04-09T02:35:37;9.82;;;6.55;;
29812;SDS011;16707;48.106;11.548;2023-04-09T02:38:04;12.00;;;6.80;;
29812;SDS011;16707;48.106;11.548;2023-04-09T02:40:32;16.48;;;7.30;;
29812;SDS011;16707;48.106;11.548;2023-04-09T02:42:59;10.60;;;7.15;;
29812;SDS011;16707;48.106;11.548;2023-04-09T02:45:26;13.05;;;6.63;;
29812;SDS011;16707;48.106;11.548;2023-04-09T02:47:56;10.88;;;6.90;;
29812;SDS011;16707;48.106;11.548;2023-04-09T02:50:25;9.95;;;6.88;;
29812;SDS011;16707;48.106;11.548;2023-04-09T02:52:53;10.27;;;6.60;;
29812;SDS011;16707;48.106;11.548;2023-04-09T02:55:20;13.57;;;8.25;;
29812;SDS011;16707;48.106;11.548;2023-04-09T02:57:47;11.82;;;7.20;;
29812;SDS011;16707;48.106;11.548;2023-04-09T03:00:14;10.50;;;7.22;;
29812;SDS011;16707;48.106;11.548;2023-04-09T03:02:41;12.93;;;8.00;;
29812;SDS011;16707;48.106;11.548;2023-04-09T03:05:08;13.55;;;7.18;;
29812;SDS011;16707;48.106;11.548;2023-04-09T03:07:35;9.68;;;7.53;;
29812;SDS011;16707;48.106;11.548;2023-04-09T03:10:03;15.93;;;8.90;;
29812;SDS011;16707;48.106;11.548;2023-04-09T03:12:30;13.43;;;7.68;;
29812;SDS011;16707;48.106;11.548;2023-04-09T03:14:57;11.93;;;7.20;;
29812;SDS011;16707;48.106;11.548;2023-04-09T03:17:24;11.73;;;6.95;;
29812;SDS011;16707;48.106;11.548;2023-04-09T03:19:51;10.02;;;7.38;;
29812;SDS011;16707;48.106;11.548;2023-04-09T03:22:18;11.40;;;7.63;;
29812;SDS011;16707;48.106;11.548;2023-04-09T03:24:45;12.00;;;8.38;;
29812;SDS011;16707;48.106;11.548;2023-04-09T03:27:14;11.55;;;8.25;;
29812;SDS011;16707;48.106;11.548;2023-04-09T03:29:41;13.15;;;7.85;;
29812;SDS011;16707;48.106;11.548;2023-04-09T03:32:08;13.20;;;8.05;;
29812;SDS011;16707;48.106;11.548;2023-04-09T03:34:34;14.05;;;8.65;;
29812;SDS011;16707;48.106;11.548;2023-04-09T03:37:02;12.35;;;8.77;;
29812;SDS011;16707;48.106;11.548;2023-04-09T03:39:28;12.82;;;7.97;;
29812;SDS011;16707;48.106;11.548;2023-04-09T03:41:55;13.30;;;7.93;;
29812;SDS011;16707;48.106;11.548;2023-04-09T03:44:24;15.30;;;8.02;;
29812;SDS011;16707;48.106;11.548;2023-04-09T03:46:51;11.85;;;7.95;;
29812;SDS011;16707;48.106;11.548;2023-04-09T03:49:18;11.88;;;7.78;;
29812;SDS011;16707;48.106;11.548;2023-04-09T03:51:45;11.18;;;7.82;;
29812;SDS011;16707;48.106;11.548;2023-04-09T03:54:15;12.65;;;8.63;;
29812;SDS011;16707;48.106;11.548;2023-04-09T03:56:41;14.20;;;8.45;;
29812;SDS011;16707;48.106;11.548;2023-04-09T03:59:08;11.75;;;8.25;;
29812;SDS011;16707;48.106;11.548;2023-04-09T04:01:36;11.27;;;8.38;;
29812;SDS011;16707;48.106;11.548;2023-04-09T04:04:04;14.25;;;8.38;;
29812;SDS011;16707;48.106;11.548;2023-04-09T04:06:32;14.80;;;8.57;;
29812;SDS011;16707;48.106;11.548;2023-04-09T04:08:59;14.90;;;8.63;;
29812;SDS011;16707;48.106;11.548;2023-04-09T04:11:26;12.63;;;8.32;;
29812;SDS011;16707;48.106;11.548;2023-04-09T04:13:53;16.58;;;10.10;;
29812;SDS011;16707;48.106;11.548;2023-04-09T04:16:21;17.67;;;10.75;;
29812;SDS011;16707;48.106;11.548;2023-04-09T04:18:49;17.52;;;10.05;;
29812;SDS011;16707;48.106;11.548;2023-04-09T04:21:16;16.45;;;10.88;;
29812;SDS011;16707;48.106;11.548;2023-04-09T04:23:43;15.90;;;10.50;;
29812;SDS011;16707;48.106;11.548;2023-04-09T04:26:10;17.70;;;11.05;;
29812;SDS011;16707;48.106;11.548;2023-04-09T04:28:37;19.83;;;12.05;;
29812;SDS011;16707;48.106;11.548;2023-04-09T04:31:06;18.65;;;11.38;;
29812;SDS011;16707;48.106;11.548;2023-04-09T04:33:34;17.13;;;11.20;;
29812;SDS011;16707;48.106;11.548;2023-04-09T04:36:06;18.10;;;11.13;;
29812;SDS011;16707;48.106;11.548;2023-04-09T04:38:34;18.77;;;12.20;;
29812;SDS011;16707;48.106;11.548;2023-04-09T04:41:02;19.33;;;12.88;;
29812;SDS011;16707;48.106;11.548;2023-04-09T04:43:28;21.48;;;13.10;;
29812;SDS011;16707;48.106;11.548;2023-04-09T04:45:58;18.90;;;11.98;;
29812;SDS011;16707;48.106;11.548;2023-04-09T04:48:27;22.02;;;12.73;;
29812;SDS011;16707;48.106;11.548;2023-04-09T04:50:55;21.02;;;13.05;;
29812;SDS011;16707;48.106;11.548;2023-04-09T04:53:24;19.33;;;12.20;;
29812;SDS011;16707;48.106;11.548;2023-04-09T04:55:51;21.27;;;13.00;;
29812;SDS011;16707;48.106;11.548;2023-04-09T04:58:19;20.42;;;13.90;;
29812;SDS011;16707;48.106;11.548;2023-04-09T05:00:46;20.52;;;12.93;;
29812;SDS011;16707;48.106;11.548;2023-04-09T05:03:13;18.27;;;11.32;;
29812;SDS011;16707;48.106;11.548;2023-04-09T05:05:40;23.08;;;13.48;;
29812;SDS011;16707;48.106;11.548;2023-04-09T05:08:07;19.13;;;12.02;;
29812;SDS011;16707;48.106;11.548;2023-04-09T05:10:35;21.70;;;12.88;;
29812;SDS011;16707;48.106;11.548;2023-04-09T05:13:05;20.13;;;12.02;;
29812;SDS011;16707;48.106;11.548;2023-04-09T05:15:32;15.88;;;10.38;;
29812;SDS011;16707;48.106;11.548;2023-04-09T05:18:02;18.67;;;10.77;;
29812;SDS011;16707;48.106;11.548;2023-04-09T05:20:29;18.10;;;11.27;;
29812;SDS011;16707;48.106;11.548;2023-04-09T05:22:56;16.48;;;10.75;;
29812;SDS011;16707;48.106;11.548;2023-04-09T05:25:24;16.67;;;10.20;;
29812;SDS011;16707;48.106;11.548;2023-04-09T05:27:52;13.93;;;9.00;;
29812;SDS011;16707;48.106;11.548;2023-04-09T05:30:20;11.77;;;7.97;;
29812;SDS011;16707;48.106;11.548;2023-04-09T05:32:46;11.30;;;8.18;;
29812;SDS011;16707;48.106;11.548;2023-04-09T05:35:13;11.68;;;7.55;;
29812;SDS011;16707;48.106;11.548;2023-04-09T05:37:40;10.50;;;6.68;;
29812;SDS011;16707;48.106;11.548;2023-04-09T05:40:07;9.98;;;6.78;;
29812;SDS011;16707;48.106;11.548;2023-04-09T05:42:35;10.60;;;6.95;;
29812;SDS011;16707;48.106;11.548;2023-04-09T05:45:04;8.30;;;6.18;;
29812;SDS011;16707;48.106;11.548;2023-04-09T05:47:32;9.80;;;6.75;;
29812;SDS011;16707;48.106;11.548;2023-04-09T05:49:59;9.10;;;6.85;;
29812;SDS011;16707;48.106;11.548;2023-04-09T05:52:25;8.63;;;6.45;;
29812;SDS011;16707;48.106;11.548;2023-04-09T05:54:52;8.70;;;6.70;;
29812;SDS011;16707;48.106;11.548;2023-04-09T05:57:19;8.60;;;6.75;;
29812;SDS011;16707;48.106;11.548;2023-04-09T06:00:01;8.05;;;6.82;;
29812;SDS011;16707;48.106;11.548;2023-04-09T06:02:29;8.05;;;6.57;;
29812;SDS011;16707;48.106;11.548;2023-04-09T06:04:56;8.15;;;7.07;;
29812;SDS011;16707;48.106;11.548;2023-04-09T06:07:23;9.05;;;7.25;;
29812;SDS011;16707;48.106;11.548;2023-04-09T06:09:50;9.30;;;7.38;;
29812;SDS011;16707;48.106;11.548;2023-04-09T06:12:17;9.32;;;7.35;;
29812;SDS011;16707;48.106;11.548;2023-04-09T06:14:46;9.73;;;8.13;;
29812;SDS011;16707;48.106;11.548;2023-04-09T06:17:13;8.77;;;7.78;;
29812;SDS011;16707;48.106;11.548;2023-04-09T06:19:41;9.68;;;7.93;;
29812;SDS011;16707;48.106;11.548;2023-04-09T06:22:08;8.80;;;6.90;;
29812;SDS011;16707;48.106;11.548;2023-04-09T06:24:36;8.88;;;7.47;;
29812;SDS011;16707;48.106;11.548;2023-04-09T06:27:02;7.80;;;6.95;;
29812;SDS011;16707;48.106;11.548;2023-04-09T06:29:29;8.80;;;7.10;;
29812;SDS011;16707;48.106;11.548;2023-04-09T06:31:56;10.88;;;7.60;;
29812;SDS011;16707;48.106;11.548;2023-04-09T06:34:23;9.40;;;7.45;;
29812;SDS011;16707;48.106;11.548;2023-04-09T06:36:51;10.20;;;7.07;;
29812;SDS011;16707;48.106;11.548;2023-04-09T06:39:19;9.35;;;6.97;;
29812;SDS011;16707;48.106;11.548;2023-04-09T06:41:46;9.70;;;6.93;;
29812;SDS011;16707;48.106;11.548;2023-04-09T06:44:12;10.65;;;7.68;;
29812;SDS011;16707;48.106;11.548;2023-04-09T06:46:39;9.18;;;6.50;;
29812;SDS011;16707;48.106;11.548;2023-04-09T06:49:06;9.00;;;6.93;;
29812;SDS011;16707;48.106;11.548;2023-04-09T06:51:33;9.88;;;6.88;;
29812;SDS011;16707;48.106;11.548;2023-04-09T06:54:01;8.30;;;6.55;;
29812;SDS011;16707;48.106;11.548;2023-04-09T06:56:28;10.23;;;6.65;;
29812;SDS011;16707;48.106;11.548;2023-04-09T06:58:55;9.35;;;6.50;;
29812;SDS011;16707;48.106;11.548;2023-04-09T07:01:22;9.85;;;6.47;;
29812;SDS011;16707;48.106;11.548;2023-04-09T07:03:49;9.10;;;6.35;;
29812;SDS011;16707;48.106;11.548;2023-04-09T07:06:19;8.00;;;6.13;;
29812;SDS011;16707;48.106;11.548;2023-04-09T07:08:46;8.50;;;5.90;;
29812;SDS011;16707;48.106;11.548;2023-04-09T07:11:14;11.30;;;6.80;;
29812;SDS011;16707;48.106;11.548;2023-04-09T07:13:41;12.30;;;7.25;;
29812;SDS011;16707;48.106;11.548;2023-04-09T07:16:08;9.18;;;6.30;;
29812;SDS011;16707;48.106;11.548;2023-04-09T07:18:35;8.55;;;6.25;;
29812;SDS011;16707;48.106;11.548;2023-04-09T07:21:02;9.82;;;6.85;;
29812;SDS011;16707;48.106;11.548;2023-04-09T07:23:29;10.40;;;6.95;;
29812;SDS011;16707;48.106;11.548;2023-04-09T07:26:00;10.15;;;6.93;;
29812;SDS011;16707;48.106;11.548;2023-04-09T07:28:28;9.05;;;6.28;;
29812;SDS011;16707;48.106;11.548;2023-04-09T07:30:55;10.40;;;7.00;;
29812;SDS011;16707;48.106;11.548;2023-04-09T07:33:22;9.90;;;6.85;;
29812;SDS011;16707;48.106;11.548;2023-04-09T07:35:49;8.93;;;6.95;;
29812;SDS011;16707;48.106;11.548;2023-04-09T07:38:16;10.55;;;6.80;;
29812;SDS011;16707;48.106;11.548;2023-04-09T07:40:43;9.90;;;6.97;;
29812;SDS011;16707;48.106;11.548;2023-04-09T07:43:10;10.05;;;7.25;;
29812;SDS011;16707;48.106;11.548;2023-04-09T07:45:38;9.70;;;6.43;;
29812;SDS011;16707;48.106;11.548;2023-04-09T07:48:05;7.72;;;5.65;;
29812;SDS011;16707;48.106;11.548;2023-04-09T07:50:33;9.52;;;5.95;;
29812;SDS011;16707;48.106;11.548;2023-04-09T07:53:00;10.05;;;6.72;;
29812;SDS011;16707;48.106;11.548;2023-04-09T07:55:30;11.45;;;6.70;;
29812;SDS011;16707;48.106;11.548;2023-04-09T07:57:56;10.73;;;6.68;;
29812;SDS011;16707;48.106;11.548;2023-04-09T08:00:23;10.02;;;6.43;;
29812;SDS011;16707;48.106;11.548;2023-04-09T08:02:52;6.60;;;4.78;;
29812;SDS011;16707;48.106;11.548;2023-04-09T08:05:19;11.45;;;6.30;;
29812;SDS011;16707;48.106;11.548;2023-04-09T08:07:46;9.57;;;6.50;;
29812;SDS011;16707;48.106;11.548;2023-04-09T08:10:12;10.95;;;6.80;;
29812;SDS011;16707;48.106;11.548;2023-04-09T08:12:40;8.35;;;6.30;;
29812;SDS011;16707;48.106;11.548;2023-04-09T08:15:07;8.55;;;6.00;;
29812;SDS011;16707;48.106;11.548;2023-04-09T08:17:34;7.97;;;5.88;;
29812;SDS011;16707;48.106;11.548;2023-04-09T08:20:03;9.75;;;6.22;;
29812;SDS011;16707;48.106;11.548;2023-04-09T08:22:33;8.38;;;6.43;;
29812;SDS011;16707;48.106;11.548;2023-04-09T08:25:00;8.35;;;6.00;;
29812;SDS011;16707;48.106;11.548;2023-04-09T08:27:27;8.90;;;6.25;;
29812;SDS011;16707;48.106;11.548;2023-04-09T08:29:54;8.90;;;6.60;;
29812;SDS011;16707;48.106;11.548;2023-04-09T08:32:21;7.20;;;5.70;;
29812;SDS011;16707;48.106;11.548;2023-04-09T08:34:48;7.20;;;5.57;;
29812;SDS011;16707;48.106;11.548;2023-04-09T08:37:16;8.02;;;5.90;;
29812;SDS011;16707;48.106;11.548;2023-04-09T08:39:43;7.43;;;5.63;;
29812;SDS011;16707;48.106;11.548;2023-04-09T08:42:10;7.68;;;5.78;;
29812;SDS011;16707;48.106;11.548;2023-04-09T08:44:39;9.23;;;6.40;;
29812;SDS011;16707;48.106;11.548;2023-04-09T08:47:06;7.45;;;5.35;;
29812;SDS011;16707;48.106;11.548;2023-04-09T08:49:35;8.13;;;5.93;;
29812;SDS011;16707;48.106;11.548;2023-04-09T08:52:04;8.27;;;6.43;;
29812;SDS011;16707;48.106;11.548;2023-04-09T08:54:32;10.48;;;5.97;;
29812;SDS011;16707;48.106;11.548;2023-04-09T08:57:03;7.65;;;6.05;;
29812;SDS011;16707;48.106;11.548;2023-04-09T08:59:30;8.32;;;5.78;;
29812;SDS011;16707;48.106;11.548;2023-04-09T09:02:06;8.50;;;6.10;;
29812;SDS011;16707;48.106;11.548;2023-04-09T09:04:43;7.97;;;5.55;;
29812;SDS011;16707;48.106;11.548;2023-04-09T09:07:24;8.32;;;5.35;;
29812;SDS011;16707;48.106;11.548;2023-04-09T09:09:55;7.38;;;5.65;;
29812;SDS011;16707;48.106;11.548;2023-04-09T09:12:33;8.07;;;5.88;;
29812;SDS011;16707;48.106;11.548;2023-04-09T09:15:02;9.13;;;6.72;;
29812;SDS011;16707;48.106;11.548;2023-04-09T09:17:29;9.70;;;6.90;;
29812;SDS011;16707;48.106;11.548;2023-04-09T09:19:56;8.85;;;5.63;;
29812;SDS011;16707;48.106;11.548;2023-04-09T09:22:24;10.13;;;7.30;;
29812;SDS011;16707;48.106;11.548;2023-04-09T09:24:51;11.30;;;6.95;;
29812;SDS011;16707;48.106;11.548;2023-04-09T09:27:32;8.77;;;6.95;;
29812;SDS011;16707;48.106;11.548;2023-04-09T09:30:00;9.52;;;6.63;;
29812;SDS011;16707;48.106;11.548;2023-04-09T09:32:29;10.57;;;6.65;;
29812;SDS011;16707;48.106;11.548;2023-04-09T09:34:57;10.73;;;7.00;;
29812;SDS011;16707;48.106;11.548;2023-04-09T09:37:26;10.35;;;8.07;;
29812;SDS011;16707;48.106;11.548;2023-04-09T09:39:57;11.30;;;7.57;;
29812;SDS011;16707;48.106;11.548;2023-04-09T09:42:24;10.05;;;7.03;;
29812;SDS011;16707;48.106;11.548;2023-04-09T09:44:54;10.30;;;7.35;;
29812;SDS011;16707;48.106;11.548;2023-04-09T09:47:21;10.05;;;7.15;;
29812;SDS011;16707;48.106;11.548;2023-04-09T09:49:50;13.40;;;8.90;;
29812;SDS011;16707;48.106;11.548;2023-04-09T09:52:20;10.85;;;7.28;;
29812;SDS011;16707;48.106;11.548;2023-04-09T09:54:51;12.43;;;8.00;;
29812;SDS011;16707;48.106;11.548;2023-04-09T09:57:19;9.88;;;7.35;;
29812;SDS011;16707;48.106;11.548;2023-04-09T09:59:52;9.95;;;7.22;;
29812;SDS011;16707;48.106;11.548;2023-04-09T10:02:24;11.07;;;6.60;;
29812;SDS011;16707;48.106;11.548;2023-04-09T10:04:55;12.48;;;7.40;;
29812;SDS011;16707;48.106;11.548;2023-04-09T10:07:26;10.10;;;7.30;;
29812;SDS011;16707;48.106;11.548;2023-04-09T10:09:55;10.52;;;6.97;;
29812;SDS011;16707;48.106;11.548;2023-04-09T10:12:24;10.43;;;7.25;;
29812;SDS011;16707;48.106;11.548;2023-04-09T10:14:52;9.70;;;7.03;;
29812;SDS011;16707;48.106;11.548;2023-04-09T10:17:24;10.45;;;7.32;;
29812;SDS011;16707;48.106;11.548;2023-04-09T10:19:53;9.00;;;6.63;;
29812;SDS011;16707;48.106;11.548;2023-04-09T10:22:26;10.07;;;7.10;;
29812;SDS011;16707;48.106;11.548;2023-04-09T10:24:56;10.40;;;6.97;;
29812;SDS011;16707;48.106;11.548;2023-04-09T10:27:24;9.68;;;6.80;;
29812;SDS011;16707;48.106;11.548;2023-04-09T10:29:52;9.48;;;6.90;;
29812;SDS011;16707;48.106;11.548;2023-04-09T10:32:20;11.00;;;7.15;;
29812;SDS011;16707;48.106;11.548;2023-04-09T10:34:50;9.32;;;6.95;;
29812;SDS011;16707;48.106;11.548;2023-04-09T10:37:21;10.13;;;6.85;;
29812;SDS011;16707;48.106;11.548;2023-04-09T10:39:49;10.55;;;7.18;;
29812;SDS011;16707;48.106;11.548;2023-04-09T10:42:17;10.27;;;7.00;;
29812;SDS011;16707;48.106;11.548;2023-04-09T10:45:02;11.63;;;7.43;;
29812;SDS011;16707;48.106;11.548;2023-04-09T10:47:33;10.60;;;7.57;;
29812;SDS011;16707;48.106;11.548;2023-04-09T10:52:51;10.45;;;7.65;;
29812;SDS011;16707;48.106;11.548;2023-04-09T10:55:31;10.73;;;7.10;;
29812;SDS011;16707;48.106;11.548;2023-04-09T10:58:00;11.25;;;7.70;;
29812;SDS011;16707;48.106;11.548;2023-04-09T11:00:27;12.05;;;8.13;;
29812;SDS011;16707;48.106;11.548;2023-04-09T11:03:09;10.93;;;7.28;;
29812;SDS011;16707;48.106;11.548;2023-04-09T11:05:47;11.20;;;7.68;;
29812;SDS011;16707;48.106;11.548;2023-04-09T11:08:17;11.88;;;7.43;;
29812;SDS011;16707;48.106;11.548;2023-04-09T11:10:46;13.02;;;8.68;;
29812;SDS011;16707;48.106;11.548;2023-04-09T11:13:14;11.63;;;8.10;;
29812;SDS011;16707;48.106;11.548;2023-04-09T11:15:42;12.30;;;8.50;;
29812;SDS011;16707;48.106;11.548;2023-04-09T11:18:14;12.23;;;9.07;;
29812;SDS011;16707;48.106;11.548;2023-04-09T11:23:14;13.77;;;8.63;;
29812;SDS011;16707;48.106;11.548;2023-04-09T11:25:47;13.68;;;8.90;;
29812;SDS011;16707;48.106;11.548;2023-04-09T11:28:15;13.25;;;8.07;;
29812;SDS011;16707;48.106;11.548;2023-04-09T11:30:42;12.63;;;8.45;;
29812;SDS011;16707;48.106;11.548;2023-04-09T11:33:10;12.35;;;8.38;;
29812;SDS011;16707;48.106;11.548;2023-04-09T11:35:39;11.68;;;8.27;;
29812;SDS011;16707;48.106;11.548;2023-04-09T11:38:06;14.18;;;9.40;;
29812;SDS011;16707;48.106;11.548;2023-04-09T11:40:33;13.13;;;8.60;;
29812;SDS011;16707;48.106;11.548;2023-04-09T11:43:01;11.88;;;8.45;;
29812;SDS011;16707;48.106;11.548;2023-04-09T11:45:28;10.55;;;7.75;;
29812;SDS011;16707;48.106;11.548;2023-04-09T11:47:56;12.73;;;8.02;;
29812;SDS011;16707;48.106;11.548;2023-04-09T11:50:26;11.10;;;8.50;;
29812;SDS011;16707;48.106;11.548;2023-04-09T11:52:55;10.93;;;7.47;;
29812;SDS011;16707;48.106;11.548;2023-04-09T11:55:23;9.73;;;7.07;;
29812;SDS011;16707;48.106;11.548;2023-04-09T11:57:52;11.63;;;7.88;;
29812;SDS011;16707;48.106;11.548;2023-04-09T12:00:24;10.57;;;7.13;;
29812;SDS011;16707;48.106;11.548;2023-04-09T12:02:57;11.77;;;7.82;;
29812;SDS011;16707;48.106;11.548;2023-04-09T12:05:27;11.88;;;8.15;;
29812;SDS011;16707;48.106;11.548;2023-04-09T12:08:00;11.10;;;7.93;;
29812;SDS011;16707;48.106;11.548;2023-04-09T12:10:30;10.88;;;7.65;;
29812;SDS011;16707;48.106;11.548;2023-04-09T12:13:02;12.63;;;8.40;;
29812;SDS011;16707;48.106;11.548;2023-04-09T12:15:31;13.88;;;8.93;;
29812;SDS011;16707;48.106;11.548;2023-04-09T12:17:59;13.25;;;8.27;;
29812;SDS011;16707;48.106;11.548;2023-04-09T12:20:27;13.75;;;8.40;;
29812;SDS011;16707;48.106;11.548;2023-04-09T12:22:58;13.00;;;8.18;;
29812;SDS011;16707;48.106;11.548;2023-04-09T12:25:28;12.43;;;8.70;;
29812;SDS011;16707;48.106;11.548;2023-04-09T12:27:55;13.20;;;8.60;;
29812;SDS011;16707;48.106;11.548;2023-04-09T12:30:23;9.07;;;6.97;;
29812;SDS011;16707;48.106;11.548;2023-04-09T12:32:51;12.82;;;8.02;;
29812;SDS011;16707;48.106;11.548;2023-04-09T12:35:23;13.63;;;8.98;;
29812;SDS011;16707;48.106;11.548;2023-04-09T12:37:50;11.15;;;8.13;;
29812;SDS011;16707;48.106;11.548;2023-04-09T12:40:18;11.27;;;7.93;;
29812;SDS011;16707;48.106;11.548;2023-04-09T12:42:46;12.27;;;8.00;;
29812;SDS011;16707;48.106;11.548;2023-04-09T12:45:13;12.10;;;8.52;;
29812;SDS011;16707;48.106;11.548;2023-04-09T12:47:42;13.07;;;8.70;;
29812;SDS011;16707;48.106;11.548;2023-04-09T12:50:10;11.27;;;7.75;;
29812;SDS011;16707;48.106;11.548;2023-04-09T12:52:38;13.15;;;8.48;;
29812;SDS011;16707;48.106;11.548;2023-04-09T12:55:06;10.60;;;7.85;;
29812;SDS011;16707;48.106;11.548;2023-04-09T12:57:35;11.93;;;8.25;;
29812;SDS011;16707;48.106;11.548;2023-04-09T13:00:02;13.05;;;7.90;;
29812;SDS011;16707;48.106;11.548;2023-04-09T13:02:30;10.30;;;7.22;;
29812;SDS011;16707;48.106;11.548;2023-04-09T13:04:58;10.40;;;7.28;;
29812;SDS011;16707;48.106;11.548;2023-04-09T13:07:25;11.77;;;8.60;;
29812;SDS011;16707;48.106;11.548;2023-04-09T13:09:53;11.27;;;8.10;;
29812;SDS011;16707;48.106;11.548;2023-04-09T13:12:24;11.38;;;7.70;;
29812;SDS011;16707;48.106;11.548;2023-04-09T13:14:53;10.15;;;7.32;;
29812;SDS011;16707;48.106;11.548;2023-04-09T13:17:23;14.10;;;8.07;;
29812;SDS011;16707;48.106;11.548;2023-04-09T13:19:50;11.52;;;8.32;;
29812;SDS011;16707;48.106;11.548;2023-04-09T13:22:17;11.15;;;7.68;;
29812;SDS011;16707;48.106;11.548;2023-04-09T13:24:44;12.18;;;8.00;;
29812;SDS011;16707;48.106;11.548;2023-04-09T13:27:11;10.30;;;7.50;;
29812;SDS011;16707;48.106;11.548;2023-04-09T13:29:39;12.40;;;7.43;;
29812;SDS011;16707;48.106;11.548;2023-04-09T13:32:10;13.25;;;7.97;;
29812;SDS011;16707;48.106;11.548;2023-04-09T13:34:37;13.15;;;8.15;;
29812;SDS011;16707;48.106;11.548;2023-04-09T13:37:04;9.52;;;7.72;;
29812;SDS011;16707;48.106;11.548;2023-04-09T13:39:32;12.40;;;8.00;;
29812;SDS011;16707;48.106;11.548;2023-04-09T13:42:00;10.32;;;6.95;;
29812;SDS011;16707;48.106;11.548;2023-04-09T13:44:27;10.25;;;6.47;;
29812;SDS011;16707;48.106;11.548;2023-04-09T13:46:57;10.52;;;7.30;;
29812;SDS011;16707;48.106;11.548;2023-04-09T13:49:26;10.18;;;7.63;;
29812;SDS011;16707;48.106;11.548;2023-04-09T13:51:54;11.70;;;8.35;;
29812;SDS011;16707;48.106;11.548;2023-04-09T13:54:21;11.70;;;7.63;;
29812;SDS011;16707;48.106;11.548;2023-04-09T13:56:48;13.85;;;7.97;;
29812;SDS011;16707;48.106;11.548;2023-04-09T13:59:15;11.93;;;7.78;;
29812;SDS011;16707;48.106;11.548;2023-04-09T14:01:42;11.95;;;8.15;;
29812;SDS011;16707;48.106;11.548;2023-04-09T14:04:12;15.27;;;8.90;;
29812;SDS011;16707;48.106;11.548;2023-04-09T14:06:40;11.48;;;7.63;;
29812;SDS011;16707;48.106;11.548;2023-04-09T14:09:07;12.95;;;8.73;;
29812;SDS011;16707;48.106;11.548;2023-04-09T14:11:36;10.93;;;7.40;;
29812;SDS011;16707;48.106;11.548;2023-04-09T14:14:03;11.02;;;7.57;;
29812;SDS011;16707;48.106;11.548;2023-04-09T14:16:30;11.77;;;7.40;;
29812;SDS011;16707;48.106;11.548;2023-04-09T14:18:57;10.35;;;7.63;;
29812;SDS011;16707;48.106;11.548;2023-04-09T14:21:24;11.75;;;7.50;;
29812;SDS011;16707;48.106;11.548;2023-04-09T14:23:53;10.25;;;6.88;;
29812;SDS011;16707;48.106;11.548;2023-04-09T14:26:20;7.07;;;5.60;;
29812;SDS011;16707;48.106;11.548;2023-04-09T14:28:47;11.57;;;5.60;;
29812;SDS011;16707;48.106;11.548;2023-04-09T14:31:17;9.93;;;5.95;;
29812;SDS011;16707;48.106;11.548;2023-04-09T14:33:47;10.02;;;6.40;;
29812;SDS011;16707;48.106;11.548;2023-04-09T14:36:14;10.40;;;6.72;;
29812;SDS011;16707;48.106;11.548;2023-04-09T14:38:41;8.35;;;6.25;;